This is the latest recevied weather packets stored in our database for station/object N1MCJ. If no packets are shown the sender has not sent any weather packets the latest 10 day(s).
| Time | Temp. | Humidity | Pressure | Rain* | Wind** | Luminosity | Snow |
|---|---|---|---|---|---|---|---|
| 1777810734 | 6.11° C | 66% | 1001.5 hPa | 0 mm | - | 32 W/m² | - |
| 1777809829 | 6.11° C | 67% | 1001.5 hPa | 0 mm | - | 46 W/m² | - |
| 1777808928 | 5.56° C | 68% | 1001.4 hPa | 0 mm | - | 150 W/m² | - |
| 1777808026 | 5.56° C | 69% | 1001.5 hPa | 0 mm | - | 86 W/m² | - |
| 1777807121 | 5° C | 70% | 1001.2 hPa | 0 mm | - | 48 W/m² | - |
| 1777806217 | 4.44° C | 72% | 1000.9 hPa | 0 mm | - | 26 W/m² | - |
| 1777805315 | 4.44° C | 72% | 1001 hPa | 0 mm | - | 17 W/m² | - |
| 1777804413 | 4.44° C | 71% | 1000.6 hPa | 0 mm | - | 11 W/m² | - |
| 1777803508 | 4.44° C | 71% | 1000.8 hPa | 0 mm | - | 4 W/m² | - |
| 1777802607 | 4.44° C | 70% | 1000.7 hPa | 0 mm | - | 1 W/m² | - |
| 1777801705 | 4.44° C | 70% | 1000.4 hPa | 0 mm | - | 0 W/m² | - |
| 1777800802 | 4.44° C | 68% | 1000.3 hPa | 0 mm | - | 0 W/m² | - |
| 1777799900 | 5° C | 68% | 1000.6 hPa | 0 mm | - | 0 W/m² | - |
| 1777799000 | 5° C | 67% | 1000.6 hPa | 0 mm | - | 0 W/m² | - |
| 1777798096 | 5° C | 66% | 1000.7 hPa | 0 mm | - | 0 W/m² | - |
| 1777797194 | 5° C | 66% | 1001.1 hPa | 0 mm | - | 0 W/m² | - |
| 1777796295 | 5.56° C | 65% | 1001.1 hPa | 0 mm | - | 0 W/m² | - |
| 1777795391 | 5.56° C | 64% | 1000.9 hPa | 0 mm | - | 0 W/m² | - |
| 1777794486 | 5.56° C | 62% | 1000.9 hPa | 0 mm | - | 0 W/m² | - |
| 1777793581 | 5.56° C | 60% | 1000.9 hPa | 0 mm | - | 0 W/m² | - |
| 1777792678 | 6.11° C | 60% | 1001.1 hPa | 0 mm | - | 0 W/m² | - |
| 1777791775 | 6.67° C | 58% | 1001.2 hPa | 0 mm | - | 0 W/m² | - |
| 1777790873 | 6.67° C | 58% | 1001.4 hPa | 0 mm | - | 0 W/m² | - |
| 1777789972 | 6.67° C | 58% | 1001.4 hPa | 0 mm | - | 0 W/m² | - |
| 1777789071 | 7.22° C | 58% | 1001.5 hPa | 0 mm | - | 0 W/m² | - |
* Rain latest hour (hover to see other rain measurements)
** Current wind speed in m/s (hover to see current wind gust speed)